Terminal Aerodrome Forecast
Issued by NWS Cleveland, OH

Home | Current Version | Previous Version | Graphics & Text | Print | Product List | Glossary Off
Versions: 1 2 3 4 5 6 7 8 9 10 11 12 13 14 15 16 17 18 19 20 21

000
FTUS41 KCLE 060100 AAA
TAFYNG
TAF AMD
KYNG 060135Z 0602/0624 03004KT 1SM BR BKN004 OVC080
      TEMPO 0609/0613 2SM BR
     FM061300 VRB03KT 2SM BR BKN009 OVC015
     FM061600 27005KT 5SM HZ BKN045=

USA.gov is the U.S. government's official web portal to all federal, state and local government web resources and services.